sensor_id;sensor_type;location;lat;lon;timestamp;pressure;altitude;pressure_sealevel;temperature;humidity
75538;BME280;64121;48.666;8.114;2022-12-11T00:02:01;99598.41;;;-1.26;100.00
75538;BME280;64121;48.666;8.114;2022-12-11T00:04:27;99600.81;;;-1.19;100.00
75538;BME280;64121;48.666;8.114;2022-12-11T00:06:53;99600.53;;;-1.17;100.00
75538;BME280;64121;48.666;8.114;2022-12-11T00:09:19;99597.25;;;-1.14;100.00
75538;BME280;64121;48.666;8.114;2022-12-11T00:11:45;99599.69;;;-1.13;99.57
75538;BME280;64121;48.666;8.114;2022-12-11T00:14:10;99587.69;;;-1.12;99.39
75538;BME280;64121;48.666;8.114;2022-12-11T00:16:36;99594.81;;;-1.11;99.17
75538;BME280;64121;48.666;8.114;2022-12-11T00:19:02;99592.88;;;-1.10;98.57
75538;BME280;64121;48.666;8.114;2022-12-11T00:21:29;99595.88;;;-1.12;98.65
75538;BME280;64121;48.666;8.114;2022-12-11T00:23:54;99595.84;;;-1.07;98.03
75538;BME280;64121;48.666;8.114;2022-12-11T00:26:19;99592.88;;;-1.10;97.88
75538;BME280;64121;48.666;8.114;2022-12-11T00:28:45;99599.69;;;-1.08;97.83
75538;BME280;64121;48.666;8.114;2022-12-11T00:31:13;99593.13;;;-1.12;97.33
75538;BME280;64121;48.666;8.114;2022-12-11T00:33:39;99601.31;;;-1.12;97.53
75538;BME280;64121;48.666;8.114;2022-12-11T00:36:10;99598.59;;;-1.12;97.20
75538;BME280;64121;48.666;8.114;2022-12-11T00:38:37;99599.69;;;-1.13;97.33
75538;BME280;64121;48.666;8.114;2022-12-11T00:41:02;99605.97;;;-1.12;96.63
75538;BME280;64121;48.666;8.114;2022-12-11T00:43:27;99604.06;;;-1.12;96.14
75538;BME280;64121;48.666;8.114;2022-12-11T00:45:53;99599.44;;;-1.16;95.25
75538;BME280;64121;48.666;8.114;2022-12-11T00:48:18;99596.53;;;-1.30;95.70
75538;BME280;64121;48.666;8.114;2022-12-11T00:50:44;99602.56;;;-1.38;95.53
75538;BME280;64121;48.666;8.114;2022-12-11T00:53:09;99607.50;;;-1.45;95.95
75538;BME280;64121;48.666;8.114;2022-12-11T00:55:38;99610.25;;;-1.45;95.53
75538;BME280;64121;48.666;8.114;2022-12-11T00:58:03;99612.72;;;-1.54;95.28
75538;BME280;64121;48.666;8.114;2022-12-11T01:00:29;99618.44;;;-1.56;95.70
75538;BME280;64121;48.666;8.114;2022-12-11T01:02:54;99624.19;;;-1.57;95.16
75538;BME280;64121;48.666;8.114;2022-12-11T01:05:20;99619.53;;;-1.57;94.84
75538;BME280;64121;48.666;8.114;2022-12-11T01:07:45;99629.09;;;-1.59;95.43
75538;BME280;64121;48.666;8.114;2022-12-11T01:10:11;99631.03;;;-1.65;95.54
75538;BME280;64121;48.666;8.114;2022-12-11T01:12:38;99629.69;;;-1.67;96.01
75538;BME280;64121;48.666;8.114;2022-12-11T01:15:04;99640.84;;;-1.64;95.82
75538;BME280;64121;48.666;8.114;2022-12-11T01:17:29;99642.47;;;-1.58;95.99
75538;BME280;64121;48.666;8.114;2022-12-11T01:19:54;99640.00;;;-1.59;95.91
75538;BME280;64121;48.666;8.114;2022-12-11T01:22:20;99643.00;;;-1.56;95.69
75538;BME280;64121;48.666;8.114;2022-12-11T01:24:45;99643.56;;;-1.59;95.59
75538;BME280;64121;48.666;8.114;2022-12-11T01:27:11;99646.25;;;-1.54;95.92
75538;BME280;64121;48.666;8.114;2022-12-11T01:29:37;99633.50;;;-1.63;95.69
75538;BME280;64121;48.666;8.114;2022-12-11T01:32:03;99644.09;;;-1.57;96.32
75538;BME280;64121;48.666;8.114;2022-12-11T01:34:29;99649.53;;;-1.57;96.63
75538;BME280;64121;48.666;8.114;2022-12-11T01:36:54;99654.44;;;-1.54;96.74
75538;BME280;64121;48.666;8.114;2022-12-11T01:39:20;99657.47;;;-1.60;95.83
75538;BME280;64121;48.666;8.114;2022-12-11T01:41:45;99657.72;;;-1.46;95.40
75538;BME280;64121;48.666;8.114;2022-12-11T01:47:11;99664.31;;;-1.78;95.08
75538;BME280;64121;48.666;8.114;2022-12-11T01:49:38;99660.50;;;-1.77;95.41
75538;BME280;64121;48.666;8.114;2022-12-11T01:52:07;99660.25;;;-1.96;95.51
75538;BME280;64121;48.666;8.114;2022-12-11T01:54:35;99656.19;;;-1.98;95.79
75538;BME280;64121;48.666;8.114;2022-12-11T01:57:03;99661.91;;;-1.95;95.49
75538;BME280;64121;48.666;8.114;2022-12-11T01:59:31;99652.91;;;-1.85;95.49
75538;BME280;64121;48.666;8.114;2022-12-11T02:02:02;99654.81;;;-2.01;95.44
75538;BME280;64121;48.666;8.114;2022-12-11T02:04:31;99646.38;;;-1.99;95.66
75538;BME280;64121;48.666;8.114;2022-12-11T02:06:57;99656.16;;;-1.93;95.70
75538;BME280;64121;48.666;8.114;2022-12-11T02:09:24;99652.63;;;-1.94;95.60
75538;BME280;64121;48.666;8.114;2022-12-11T02:12:00;99659.44;;;-1.96;95.69
75538;BME280;64121;48.666;8.114;2022-12-11T02:14:31;99666.53;;;-2.05;96.13
75538;BME280;64121;48.666;8.114;2022-12-11T02:17:03;99668.16;;;-2.09;95.93
75538;BME280;64121;48.666;8.114;2022-12-11T02:19:44;99676.09;;;-2.03;96.09
75538;BME280;64121;48.666;8.114;2022-12-11T02:22:15;99681.25;;;-1.96;95.91
75538;BME280;64121;48.666;8.114;2022-12-11T02:25:01;99674.44;;;-1.99;95.72
75538;BME280;64121;48.666;8.114;2022-12-11T02:27:33;99679.09;;;-1.99;96.19
75538;BME280;64121;48.666;8.114;2022-12-11T02:30:04;99679.63;;;-1.92;96.04
75538;BME280;64121;48.666;8.114;2022-12-11T02:32:35;99679.88;;;-1.89;96.13
75538;BME280;64121;48.666;8.114;2022-12-11T02:35:08;99679.88;;;-1.89;96.27
75538;BME280;64121;48.666;8.114;2022-12-11T02:37:36;99672.00;;;-1.85;96.35
75538;BME280;64121;48.666;8.114;2022-12-11T02:40:06;99670.91;;;-1.84;96.20
75538;BME280;64121;48.666;8.114;2022-12-11T02:42:32;99675.78;;;-1.81;96.35
75538;BME280;64121;48.666;8.114;2022-12-11T02:45:02;99669.50;;;-1.76;96.30
75538;BME280;64121;48.666;8.114;2022-12-11T02:47:30;99662.94;;;-1.70;96.35
75538;BME280;64121;48.666;8.114;2022-12-11T02:49:58;99659.13;;;-1.69;96.56
75538;BME280;64121;48.666;8.114;2022-12-11T02:52:27;99658.84;;;-1.68;95.88
75538;BME280;64121;48.666;8.114;2022-12-11T02:54:55;99658.31;;;-1.70;95.57
75538;BME280;64121;48.666;8.114;2022-12-11T02:57:24;99657.47;;;-1.70;95.45
75538;BME280;64121;48.666;8.114;2022-12-11T02:59:53;99656.97;;;-1.77;95.60
75538;BME280;64121;48.666;8.114;2022-12-11T03:02:19;99664.06;;;-1.81;95.28
75538;BME280;64121;48.666;8.114;2022-12-11T03:04:45;99659.44;;;-1.96;95.17
75538;BME280;64121;48.666;8.114;2022-12-11T03:07:14;99655.38;;;-1.99;95.22
75538;BME280;64121;48.666;8.114;2022-12-11T03:09:43;99661.06;;;-2.05;95.06
75538;BME280;64121;48.666;8.114;2022-12-11T03:12:10;99653.47;;;-2.03;95.60
75538;BME280;64121;48.666;8.114;2022-12-11T03:14:37;99659.16;;;-2.05;95.60
75538;BME280;64121;48.666;8.114;2022-12-11T03:17:11;99654.81;;;-2.06;95.55
75538;BME280;64121;48.666;8.114;2022-12-11T03:19:43;99657.00;;;-2.13;95.51
75538;BME280;64121;48.666;8.114;2022-12-11T03:22:13;99657.00;;;-2.13;95.67
75538;BME280;64121;48.666;8.114;2022-12-11T03:24:44;99656.75;;;-2.17;95.80
75538;BME280;64121;48.666;8.114;2022-12-11T03:27:15;99652.13;;;-2.21;95.54
75538;BME280;64121;48.666;8.114;2022-12-11T03:29:50;99665.19;;;-2.18;95.61
75538;BME280;64121;48.666;8.114;2022-12-11T03:32:20;99669.00;;;-2.14;95.68
75538;BME280;64121;48.666;8.114;2022-12-11T03:34:51;99666.28;;;-2.19;95.25
75538;BME280;64121;48.666;8.114;2022-12-11T03:37:20;99669.81;;;-2.19;95.25
75538;BME280;64121;48.666;8.114;2022-12-11T03:39:50;99669.00;;;-2.14;95.29
75538;BME280;64121;48.666;8.114;2022-12-11T03:42:19;99672.53;;;-2.14;95.46
75538;BME280;64121;48.666;8.114;2022-12-11T03:44:48;99677.97;;;-2.08;95.28
75538;BME280;64121;48.666;8.114;2022-12-11T03:47:17;99675.53;;;-2.10;95.52
75538;BME280;64121;48.666;8.114;2022-12-11T03:49:43;99676.63;;;-2.11;95.34
75538;BME280;64121;48.666;8.114;2022-12-11T03:52:12;99673.63;;;-2.09;95.20
75538;BME280;64121;48.666;8.114;2022-12-11T03:54:39;99670.63;;;-1.98;94.69
75538;BME280;64121;48.666;8.114;2022-12-11T03:57:06;99664.91;;;-2.11;94.94
75538;BME280;64121;48.666;8.114;2022-12-11T03:59:33;99660.28;;;-2.16;94.89
75538;BME280;64121;48.666;8.114;2022-12-11T04:01:59;99660.56;;;-2.18;94.96
75538;BME280;64121;48.666;8.114;2022-12-11T04:04:24;99659.47;;;-2.17;95.38
75538;BME280;64121;48.666;8.114;2022-12-11T04:06:49;99658.91;;;-2.14;95.63
75538;BME280;64121;48.666;8.114;2022-12-11T04:09:16;99653.19;;;-2.12;95.46
75538;BME280;64121;48.666;8.114;2022-12-11T04:11:42;99653.75;;;-2.15;95.30
75538;BME280;64121;48.666;8.114;2022-12-11T04:14:09;99653.75;;;-2.15;94.96
75538;BME280;64121;48.666;8.114;2022-12-11T04:16:35;99651.28;;;-2.17;95.13
75538;BME280;64121;48.666;8.114;2022-12-11T04:19:00;99654.03;;;-2.22;95.55
75538;BME280;64121;48.666;8.114;2022-12-11T04:21:26;99657.28;;;-2.20;95.53
75538;BME280;64121;48.666;8.114;2022-12-11T04:23:51;99656.19;;;-2.19;95.89
75538;BME280;64121;48.666;8.114;2022-12-11T04:26:19;99653.47;;;-2.14;95.92
75538;BME280;64121;48.666;8.114;2022-12-11T04:28:46;99653.75;;;-2.20;96.25
75538;BME280;64121;48.666;8.114;2022-12-11T04:31:13;99652.91;;;-2.16;95.87
75538;BME280;64121;48.666;8.114;2022-12-11T04:33:39;99650.75;;;-2.19;95.73
75538;BME280;64121;48.666;8.114;2022-12-11T04:36:06;99650.47;;;-2.17;95.73
75538;BME280;64121;48.666;8.114;2022-12-11T04:38:32;99655.66;;;-2.21;95.49
75538;BME280;64121;48.666;8.114;2022-12-11T04:40:58;99652.94;;;-2.21;95.88
75538;BME280;64121;48.666;8.114;2022-12-11T04:43:25;99647.19;;;-2.24;96.11
75538;BME280;64121;48.666;8.114;2022-12-11T04:45:50;99650.19;;;-2.26;96.40
75538;BME280;64121;48.666;8.114;2022-12-11T04:48:24;99646.91;;;-2.28;95.86
75538;BME280;64121;48.666;8.114;2022-12-11T04:50:49;99638.47;;;-2.26;95.78
75538;BME280;64121;48.666;8.114;2022-12-11T04:53:14;99635.47;;;-2.25;96.04
75538;BME280;64121;48.666;8.114;2022-12-11T04:55:40;99638.19;;;-2.25;95.69
75538;BME280;64121;48.666;8.114;2022-12-11T04:58:05;99633.84;;;-2.26;95.73
75538;BME280;64121;48.666;8.114;2022-12-11T05:00:32;99630.28;;;-2.26;95.76
75538;BME280;64121;48.666;8.114;2022-12-11T05:02:57;99633.28;;;-2.28;95.66
75538;BME280;64121;48.666;8.114;2022-12-11T05:05:22;99631.38;;;-2.27;95.65
75538;BME280;64121;48.666;8.114;2022-12-11T05:07:47;99625.66;;;-2.31;95.71
75538;BME280;64121;48.666;8.114;2022-12-11T05:10:13;99626.50;;;-2.30;96.11
75538;BME280;64121;48.666;8.114;2022-12-11T05:12:38;99622.94;;;-2.31;96.08
75538;BME280;64121;48.666;8.114;2022-12-11T05:15:04;99622.41;;;-2.33;96.18
75538;BME280;64121;48.666;8.114;2022-12-11T05:17:31;99613.97;;;-2.36;96.32
75538;BME280;64121;48.666;8.114;2022-12-11T05:19:57;99618.56;;;-2.42;96.37
75538;BME280;64121;48.666;8.114;2022-12-11T05:22:22;99605.78;;;-2.26;96.66
75538;BME280;64121;48.666;8.114;2022-12-11T05:24:48;99611.78;;;-2.39;96.68
75538;BME280;64121;48.666;8.114;2022-12-11T05:27:13;99613.16;;;-2.37;96.74
75538;BME280;64121;48.666;8.114;2022-12-11T05:29:38;99603.88;;;-2.46;96.80
75538;BME280;64121;48.666;8.114;2022-12-11T05:32:04;99595.16;;;-2.48;97.18
75538;BME280;64121;48.666;8.114;2022-12-11T05:34:31;99599.53;;;-2.47;97.34
75538;BME280;64121;48.666;8.114;2022-12-11T05:36:56;99599.81;;;-2.54;97.22
75538;BME280;64121;48.666;8.114;2022-12-11T05:39:21;99586.72;;;-2.47;97.47
75538;BME280;64121;48.666;8.114;2022-12-11T05:41:46;99583.75;;;-2.55;97.61
75538;BME280;64121;48.666;8.114;2022-12-11T05:44:12;99590.00;;;-2.55;97.55
75538;BME280;64121;48.666;8.114;2022-12-11T05:46:38;99588.09;;;-2.54;97.40
75538;BME280;64121;48.666;8.114;2022-12-11T05:49:04;99582.09;;;-2.56;97.28
75538;BME280;64121;48.666;8.114;2022-12-11T05:51:31;99581.00;;;-2.55;97.23
75538;BME280;64121;48.666;8.114;2022-12-11T05:53:57;99579.91;;;-2.54;97.25
75538;BME280;64121;48.666;8.114;2022-12-11T05:56:24;99582.66;;;-2.54;97.75
75538;BME280;64121;48.666;8.114;2022-12-11T05:58:50;99580.47;;;-2.52;97.89
75538;BME280;64121;48.666;8.114;2022-12-11T06:01:18;99576.66;;;-2.51;97.93
75538;BME280;64121;48.666;8.114;2022-12-11T06:03:44;99576.38;;;-2.50;97.97
75538;BME280;64121;48.666;8.114;2022-12-11T06:06:10;99574.47;;;-2.54;97.97
75538;BME280;64121;48.666;8.114;2022-12-11T06:08:36;99572.00;;;-2.51;97.62
75538;BME280;64121;48.666;8.114;2022-12-11T06:11:02;99570.38;;;-2.52;97.58
75538;BME280;64121;48.666;8.114;2022-12-11T06:13:28;99572.28;;;-2.52;97.56
75538;BME280;64121;48.666;8.114;2022-12-11T06:15:54;99566.03;;;-2.53;97.48
75538;BME280;64121;48.666;8.114;2022-12-11T06:18:19;99563.84;;;-2.51;97.70
75538;BME280;64121;48.666;8.114;2022-12-11T06:20:45;99567.41;;;-2.55;98.17
75538;BME280;64121;48.666;8.114;2022-12-11T06:23:10;99570.66;;;-2.58;98.09
75538;BME280;64121;48.666;8.114;2022-12-11T06:25:38;99566.84;;;-2.57;97.75
75538;BME280;64121;48.666;8.114;2022-12-11T06:28:03;99564.41;;;-2.59;97.65
75538;BME280;64121;48.666;8.114;2022-12-11T06:30:29;99569.28;;;-2.61;97.70
75538;BME280;64121;48.666;8.114;2022-12-11T06:32:54;99564.09;;;-2.62;98.10
75538;BME280;64121;48.666;8.114;2022-12-11T06:35:19;99570.13;;;-2.60;98.26
75538;BME280;64121;48.666;8.114;2022-12-11T06:37:45;99574.47;;;-2.64;98.38
75538;BME280;64121;48.666;8.114;2022-12-11T06:40:10;99570.41;;;-2.57;98.18
75538;BME280;64121;48.666;8.114;2022-12-11T06:42:37;99571.19;;;-2.61;97.93
75538;BME280;64121;48.666;8.114;2022-12-11T06:45:03;99572.84;;;-2.60;97.95
75538;BME280;64121;48.666;8.114;2022-12-11T06:47:28;99570.13;;;-2.55;98.13
75538;BME280;64121;48.666;8.114;2022-12-11T06:49:54;99566.59;;;-2.56;98.27
75538;BME280;64121;48.666;8.114;2022-12-11T06:52:19;99572.56;;;-2.54;98.09
75538;BME280;64121;48.666;8.114;2022-12-11T06:54:45;99571.47;;;-2.63;98.08
75538;BME280;64121;48.666;8.114;2022-12-11T06:57:10;99565.22;;;-2.68;98.49
75538;BME280;64121;48.666;8.114;2022-12-11T06:59:37;99573.91;;;-2.66;98.72
75538;BME280;64121;48.666;8.114;2022-12-11T07:02:03;99576.91;;;-2.73;98.86
75538;BME280;64121;48.666;8.114;2022-12-11T07:04:28;99585.38;;;-2.69;98.94
75538;BME280;64121;48.666;8.114;2022-12-11T07:06:54;99589.44;;;-2.67;98.71
75538;BME280;64121;48.666;8.114;2022-12-11T07:09:19;99589.72;;;-2.63;98.67
75538;BME280;64121;48.666;8.114;2022-12-11T07:11:44;99591.63;;;-2.59;98.56
75538;BME280;64121;48.666;8.114;2022-12-11T07:14:10;99588.63;;;-2.62;98.49
75538;BME280;64121;48.666;8.114;2022-12-11T07:16:36;99585.91;;;-2.57;98.39
75538;BME280;64121;48.666;8.114;2022-12-11T07:19:02;99589.19;;;-2.50;98.72
75538;BME280;64121;48.666;8.114;2022-12-11T07:21:28;99585.06;;;-2.42;98.66
75538;BME280;64121;48.666;8.114;2022-12-11T07:23:54;99588.88;;;-2.44;98.33
75538;BME280;64121;48.666;8.114;2022-12-11T07:26:20;99590.00;;;-2.55;98.46
75538;BME280;64121;48.666;8.114;2022-12-11T07:28:45;99594.63;;;-2.50;98.71
75538;BME280;64121;48.666;8.114;2022-12-11T07:31:12;99591.63;;;-2.54;98.74
75538;BME280;64121;48.666;8.114;2022-12-11T07:33:39;99595.16;;;-2.48;98.48
75538;BME280;64121;48.666;8.114;2022-12-11T07:36:07;99588.63;;;-2.47;98.75
75538;BME280;64121;48.666;8.114;2022-12-11T07:38:34;99588.09;;;-2.39;98.31
75538;BME280;64121;48.666;8.114;2022-12-11T07:41:00;99601.44;;;-2.37;97.95
75538;BME280;64121;48.666;8.114;2022-12-11T07:43:25;99602.53;;;-2.33;97.46
75538;BME280;64121;48.666;8.114;2022-12-11T07:45:51;99606.88;;;-2.32;97.09
75538;BME280;64121;48.666;8.114;2022-12-11T07:48:16;99609.59;;;-2.32;96.95
75538;BME280;64121;48.666;8.114;2022-12-11T07:50:43;99607.69;;;-2.32;96.99
75538;BME280;64121;48.666;8.114;2022-12-11T07:53:08;99607.97;;;-2.28;96.88
75538;BME280;64121;48.666;8.114;2022-12-11T07:55:33;99612.03;;;-2.26;96.79
75538;BME280;64121;48.666;8.114;2022-12-11T07:57:58;99613.94;;;-2.26;96.61
75538;BME280;64121;48.666;8.114;2022-12-11T08:00:24;99609.59;;;-2.22;96.33
75538;BME280;64121;48.666;8.114;2022-12-11T08:02:49;99613.16;;;-2.22;96.79
75538;BME280;64121;48.666;8.114;2022-12-11T08:05:15;99619.69;;;-2.18;96.87
75538;BME280;64121;48.666;8.114;2022-12-11T08:07:41;99615.84;;;-2.17;96.62
75538;BME280;64121;48.666;8.114;2022-12-11T08:10:07;99621.59;;;-2.18;96.68
75538;BME280;64121;48.666;8.114;2022-12-11T08:12:33;99616.69;;;-2.16;96.85
75538;BME280;64121;48.666;8.114;2022-12-11T08:14:58;99618.84;;;-2.13;96.98
75538;BME280;64121;48.666;8.114;2022-12-11T08:17:23;99618.56;;;-2.06;96.87
75538;BME280;64121;48.666;8.114;2022-12-11T08:19:48;99609.84;;;-2.03;96.85
75538;BME280;64121;48.666;8.114;2022-12-11T08:22:14;99614.50;;;-2.04;96.78
75538;BME280;64121;48.666;8.114;2022-12-11T08:24:40;99619.94;;;-1.99;96.72
75538;BME280;64121;48.666;8.114;2022-12-11T08:27:06;99612.03;;;-2.00;96.93
75538;BME280;64121;48.666;8.114;2022-12-11T08:29:31;99618.53;;;-1.91;97.20
75538;BME280;64121;48.666;8.114;2022-12-11T08:31:57;99618.53;;;-1.86;96.91
75538;BME280;64121;48.666;8.114;2022-12-11T08:34:22;99609.81;;;-1.88;97.04
75538;BME280;64121;48.666;8.114;2022-12-11T08:36:47;99611.16;;;-1.75;96.84
75538;BME280;64121;48.666;8.114;2022-12-11T08:39:13;99618.78;;;-1.67;96.71
75538;BME280;64121;48.666;8.114;2022-12-11T08:41:39;99608.13;;;-1.74;96.46
75538;BME280;64121;48.666;8.114;2022-12-11T08:44:10;99615.47;;;-1.59;96.22
75538;BME280;64121;48.666;8.114;2022-12-11T08:46:35;99612.22;;;-1.66;96.17
75538;BME280;64121;48.666;8.114;2022-12-11T08:49:01;99609.72;;;-1.58;95.96
75538;BME280;64121;48.666;8.114;2022-12-11T08:51:27;99612.75;;;-1.64;95.88
75538;BME280;64121;48.666;8.114;2022-12-11T08:53:53;99607.28;;;-1.59;96.05
75538;BME280;64121;48.666;8.114;2022-12-11T08:56:19;99602.09;;;-1.61;96.04
75538;BME280;64121;48.666;8.114;2022-12-11T08:58:46;99605.34;;;-1.54;96.02
75538;BME280;64121;48.666;8.114;2022-12-11T09:01:14;99605.88;;;-1.46;95.61
75538;BME280;64121;48.666;8.114;2022-12-11T09:03:40;99603.66;;;-1.39;95.30
75538;BME280;64121;48.666;8.114;2022-12-11T09:06:07;99593.84;;;-1.40;95.70
75538;BME280;64121;48.666;8.114;2022-12-11T09:08:33;99597.91;;;-1.38;95.60
75538;BME280;64121;48.666;8.114;2022-12-11T09:11:02;99595.97;;;-1.32;95.63
75538;BME280;64121;48.666;8.114;2022-12-11T09:13:27;99588.88;;;-1.28;95.52
75538;BME280;64121;48.666;8.114;2022-12-11T09:15:54;99586.69;;;-1.26;95.37
75538;BME280;64121;48.666;8.114;2022-12-11T09:18:19;99579.78;;;-1.13;94.93
75538;BME280;64121;48.666;8.114;2022-12-11T09:20:44;99579.53;;;-1.17;94.50
75538;BME280;64121;48.666;8.114;2022-12-11T09:23:10;99592.06;;;-1.16;93.95
75538;BME280;64121;48.666;8.114;2022-12-11T09:25:38;99589.34;;;-1.16;93.42
75538;BME280;64121;48.666;8.114;2022-12-11T09:28:04;99588.78;;;-1.13;92.66
75538;BME280;64121;48.666;8.114;2022-12-11T09:30:29;99590.97;;;-1.15;92.15
75538;BME280;64121;48.666;8.114;2022-12-11T09:32:56;99589.06;;;-1.09;92.12
75538;BME280;64121;48.666;8.114;2022-12-11T09:35:21;99584.34;;;-0.99;91.76
75538;BME280;64121;48.666;8.114;2022-12-11T09:37:46;99575.59;;;-1.01;91.29
75538;BME280;64121;48.666;8.114;2022-12-11T09:40:12;99581.06;;;-1.01;91.10
75538;BME280;64121;48.666;8.114;2022-12-11T09:42:46;99573.72;;;-1.05;90.09
75538;BME280;64121;48.666;8.114;2022-12-11T09:45:14;99580.50;;;-0.98;90.51
75538;BME280;64121;48.666;8.114;2022-12-11T09:47:43;99570.53;;;-0.78;89.85
75538;BME280;64121;48.666;8.114;2022-12-11T09:50:15;99573.81;;;-0.76;90.08
75538;BME280;64121;48.666;8.114;2022-12-11T09:52:50;99566.75;;;-0.82;88.97
75538;BME280;64121;48.666;8.114;2022-12-11T09:55:21;99568.44;;;-0.86;88.65
75538;BME280;64121;48.666;8.114;2022-12-11T09:57:52;99552.53;;;-0.79;89.07
75538;BME280;64121;48.666;8.114;2022-12-11T10:00:25;99556.88;;;-0.73;89.13
75538;BME280;64121;48.666;8.114;2022-12-11T10:03:05;99557.59;;;-0.63;88.59
75538;BME280;64121;48.666;8.114;2022-12-11T10:05:40;99555.09;;;-0.59;88.35
75538;BME280;64121;48.666;8.114;2022-12-11T10:08:15;99547.41;;;-0.52;88.01
75538;BME280;64121;48.666;8.114;2022-12-11T10:10:44;99543.59;;;-0.56;87.27
75538;BME280;64121;48.666;8.114;2022-12-11T10:13:20;99531.53;;;-0.50;87.75
75538;BME280;64121;48.666;8.114;2022-12-11T10:15:56;99537.53;;;-0.48;87.41
75538;BME280;64121;48.666;8.114;2022-12-11T10:18:25;99534.25;;;-0.50;86.91
75538;BME280;64121;48.666;8.114;2022-12-11T10:20:53;99528.28;;;-0.52;87.00
75538;BME280;64121;48.666;8.114;2022-12-11T10:23:21;99523.50;;;-0.41;87.08
75538;BME280;64121;48.666;8.114;2022-12-11T10:25:52;99516.72;;;-0.44;87.33
75538;BME280;64121;48.666;8.114;2022-12-11T10:28:19;99518.56;;;-0.39;87.48
75538;BME280;64121;48.666;8.114;2022-12-11T10:30:48;99513.59;;;-0.32;88.08
75538;BME280;64121;48.666;8.114;2022-12-11T10:33:19;99523.75;;;-0.09;87.70
75538;BME280;64121;48.666;8.114;2022-12-11T10:35:47;99505.75;;;0.09;86.69
75538;BME280;64121;48.666;8.114;2022-12-11T10:38:18;99501.47;;;0.03;87.16
75538;BME280;64121;48.666;8.114;2022-12-11T10:40:48;99499.06;;;-0.04;86.37
75538;BME280;64121;48.666;8.114;2022-12-11T10:43:14;99497.78;;;-0.11;87.15
75538;BME280;64121;48.666;8.114;2022-12-11T10:45:49;99488.03;;;0.07;86.38
75538;BME280;64121;48.666;8.114;2022-12-11T10:48:15;99487.53;;;-0.01;86.40
75538;BME280;64121;48.666;8.114;2022-12-11T10:50:42;99481.59;;;0.16;85.59
75538;BME280;64121;48.666;8.114;2022-12-11T10:53:19;99484.34;;;0.16;86.28
75538;BME280;64121;48.666;8.114;2022-12-11T10:55:47;99489.06;;;0.11;86.67
75538;BME280;64121;48.666;8.114;2022-12-11T10:58:16;99491.09;;;0.24;86.90
75538;BME280;64121;48.666;8.114;2022-12-11T11:00:42;99481.59;;;0.16;85.99
75538;BME280;64121;48.666;8.114;2022-12-11T11:03:19;99477.09;;;0.07;87.40
75538;BME280;64121;48.666;8.114;2022-12-11T11:05:45;99484.53;;;0.01;86.47
75538;BME280;64121;48.666;8.114;2022-12-11T11:08:13;99478.28;;;-0.05;86.73
75538;BME280;64121;48.666;8.114;2022-12-11T11:10:50;99478.53;;;-0.01;86.96
75538;BME280;64121;48.666;8.114;2022-12-11T11:13:16;99473.13;;;-0.06;87.01
75538;BME280;64121;48.666;8.114;2022-12-11T11:15:42;99469.47;;;0.04;86.54
75538;BME280;64121;48.666;8.114;2022-12-11T11:18:11;99474.16;;;-0.02;87.00
75538;BME280;64121;48.666;8.114;2022-12-11T11:20:43;99469.50;;;-0.02;86.77
75538;BME280;64121;48.666;8.114;2022-12-11T11:23:13;99470.88;;;0.01;86.29
75538;BME280;64121;48.666;8.114;2022-12-11T11:25:48;99476.03;;;0.03;86.24
75538;BME280;64121;48.666;8.114;2022-12-11T11:28:18;99473.00;;;0.04;86.89
75538;BME280;64121;48.666;8.114;2022-12-11T11:30:55;99481.16;;;0.09;87.17
75538;BME280;64121;48.666;8.114;2022-12-11T11:33:22;99482.19;;;0.13;87.31
75538;BME280;64121;48.666;8.114;2022-12-11T11:35:51;99481.50;;;0.03;87.26
75538;BME280;64121;48.666;8.114;2022-12-11T11:38:18;99478.00;;;-0.03;87.57
75538;BME280;64121;48.666;8.114;2022-12-11T11:40:48;99475.56;;;-0.05;88.06
75538;BME280;64121;48.666;8.114;2022-12-11T11:43:26;99467.31;;;0.01;88.13
75538;BME280;64121;48.666;8.114;2022-12-11T11:45:56;99468.66;;;0.03;88.26
75538;BME280;64121;48.666;8.114;2022-12-11T11:48:32;99470.59;;;-0.03;88.44
75538;BME280;64121;48.666;8.114;2022-12-11T11:51:05;99468.00;;;-0.13;88.09
75538;BME280;64121;48.666;8.114;2022-12-11T11:53:33;99462.31;;;-0.16;88.04
75538;BME280;64121;48.666;8.114;2022-12-11T11:56:04;99463.34;;;-0.12;88.44
75538;BME280;64121;48.666;8.114;2022-12-11T11:58:43;99460.63;;;-0.12;89.05
75538;BME280;64121;48.666;8.114;2022-12-11T12:01:13;99455.31;;;-0.04;88.37
75538;BME280;64121;48.666;8.114;2022-12-11T12:03:39;99456.38;;;0.01;88.43
75538;BME280;64121;48.666;8.114;2022-12-11T12:06:09;99448.31;;;0.09;88.28
75538;BME280;64121;48.666;8.114;2022-12-11T12:08:43;99446.91;;;0.12;87.57
75538;BME280;64121;48.666;8.114;2022-12-11T12:11:18;99439.38;;;0.04;87.69
75538;BME280;64121;48.666;8.114;2022-12-11T12:13:56;99439.31;;;0.09;87.55
75538;BME280;64121;48.666;8.114;2022-12-11T12:16:31;99442.88;;;0.28;86.63
75538;BME280;64121;48.666;8.114;2022-12-11T12:19:10;99431.50;;;0.21;86.47
75538;BME280;64121;48.666;8.114;2022-12-11T12:21:39;99430.84;;;0.29;86.64
75538;BME280;64121;48.666;8.114;2022-12-11T12:24:19;99430.00;;;0.28;86.66
75538;BME280;64121;48.666;8.114;2022-12-11T12:26:53;99426.34;;;0.38;86.05
75538;BME280;64121;48.666;8.114;2022-12-11T12:29:40;99424.41;;;0.39;86.38
75538;BME280;64121;48.666;8.114;2022-12-11T12:32:13;99429.72;;;0.30;85.89
75538;BME280;64121;48.666;8.114;2022-12-11T12:34:54;99429.94;;;0.34;86.33
75538;BME280;64121;48.666;8.114;2022-12-11T12:37:27;99415.81;;;0.26;86.93
75538;BME280;64121;48.666;8.114;2022-12-11T12:40:02;99425.94;;;0.26;86.39
75538;BME280;64121;48.666;8.114;2022-12-11T12:42:37;99424.16;;;0.16;87.02
75538;BME280;64121;48.666;8.114;2022-12-11T12:45:16;99422.69;;;0.24;86.84
75538;BME280;64121;48.666;8.114;2022-12-11T12:47:47;99423.34;;;0.35;86.04
75538;BME280;64121;48.666;8.114;2022-12-11T12:50:16;99424.25;;;0.30;86.32
75538;BME280;64121;48.666;8.114;2022-12-11T12:52:43;99420.69;;;0.29;86.55
75538;BME280;64121;48.666;8.114;2022-12-11T12:55:18;99420.56;;;0.21;87.44
75538;BME280;64121;48.666;8.114;2022-12-11T12:57:47;99423.03;;;0.17;87.30
75538;BME280;64121;48.666;8.114;2022-12-11T13:00:27;99424.31;;;0.25;87.21
75538;BME280;64121;48.666;8.114;2022-12-11T13:02:53;99417.88;;;0.35;86.67
75538;BME280;64121;48.666;8.114;2022-12-11T13:05:20;99413.53;;;0.34;86.99
75538;BME280;64121;48.666;8.114;2022-12-11T13:07:48;99418.47;;;0.32;87.09
75538;BME280;64121;48.666;8.114;2022-12-11T13:10:23;99417.59;;;0.36;86.73